createdAt,value
2019-02-04T00:04:47.916Z,1.27
2019-02-04T00:07:37.727Z,1.43
2019-02-04T00:10:21.507Z,1.18
2019-02-04T00:13:11.240Z,1.25
2019-02-04T00:16:21.491Z,1.28
2019-02-04T00:19:11.243Z,1.33
2019-02-04T00:21:53.596Z,1.28
2019-02-04T00:24:43.323Z,1.25
2019-02-04T00:27:25.341Z,1.35
2019-02-04T00:30:16.025Z,1.47
2019-02-04T00:32:58.489Z,1.18
2019-02-04T00:38:46.268Z,1.45
2019-02-04T00:41:36.186Z,1.35
2019-02-04T00:44:25.896Z,1.11
2019-02-04T00:47:34.467Z,1.15
2019-02-04T00:50:17.254Z,1.09
2019-02-04T00:53:07.197Z,1.02
2019-02-04T00:55:56.961Z,0.94
2019-02-04T00:58:46.752Z,0.50
2019-02-04T01:01:36.566Z,0.45
2019-02-04T01:04:39.892Z,0.35
2019-02-04T01:07:22.530Z,0.05
2019-02-04T01:13:09.013Z,-0.23
2019-02-04T01:15:58.792Z,-0.33
2019-02-04T01:18:48.609Z,-0.35
2019-02-04T01:21:38.408Z,-0.48
2019-02-04T01:24:28.207Z,-0.59
2019-02-04T01:27:17.974Z,-0.68
2019-02-04T01:30:01.916Z,-0.83
2019-02-04T01:32:51.692Z,-0.76
2019-02-04T01:35:41.442Z,-0.71
2019-02-04T01:38:31.254Z,-0.61
2019-02-04T01:41:21.012Z,-0.58
2019-02-04T01:44:10.786Z,-0.66
2019-02-04T01:47:00.548Z,-0.72
2019-02-04T01:49:50.282Z,-0.73
2019-02-04T01:52:32.956Z,-0.83
2019-02-04T01:55:22.756Z,-0.95
2019-02-04T01:58:12.541Z,-1.02
2019-02-04T02:01:02.446Z,-1.05
2019-02-04T02:03:52.154Z,-0.99
2019-02-04T02:06:24.609Z,-0.89
2019-02-04T02:09:33.447Z,-1.00
2019-02-04T02:12:23.228Z,-1.01
2019-02-04T02:15:12.971Z,-1.05
2019-02-04T02:18:02.759Z,-1.17
2019-02-04T02:20:52.570Z,-1.38
2019-02-04T02:23:42.430Z,-1.59
2019-02-04T02:26:32.201Z,-1.33
2019-02-04T02:29:14.943Z,-1.37
2019-02-04T02:31:56.928Z,-1.47
2019-02-04T02:34:59.464Z,-1.52
2019-02-04T02:37:42.314Z,-1.61
2019-02-04T02:43:48.682Z,-1.63
2019-02-04T02:46:38.486Z,-1.41
2019-02-04T02:49:47.378Z,-1.49
2019-02-04T02:58:36.281Z,-1.73
2019-02-04T03:01:25.997Z,-1.70
2019-02-04T03:04:15.723Z,-1.72
2019-02-04T03:06:58.500Z,-1.68
2019-02-04T03:09:48.448Z,-1.75
2019-02-04T03:12:57.282Z,-1.88
2019-02-04T03:15:40.017Z,-1.71
2019-02-04T03:18:29.779Z,-1.73
2019-02-04T03:21:19.527Z,-1.68
2019-02-04T03:24:09.487Z,-1.66
2019-02-04T03:26:59.247Z,-1.68
2019-02-04T03:29:41.496Z,-1.82
2019-02-04T03:32:31.278Z,-1.82
2019-02-04T03:35:21.086Z,-1.61
2019-02-04T03:38:29.908Z,-1.64
2019-02-04T03:41:19.655Z,-1.55
2019-02-04T03:44:09.425Z,-1.66
2019-02-04T03:46:59.210Z,-1.64
2019-02-04T03:49:42.835Z,-1.88
2019-02-04T03:52:32.603Z,-1.97
2019-02-04T03:55:22.410Z,-2.05
2019-02-04T03:58:04.694Z,-2.21
2019-02-04T04:00:54.436Z,-2.16
2019-02-04T04:03:25.067Z,-2.19
2019-02-04T04:06:14.781Z,-2.17
2019-02-04T04:08:56.762Z,-2.21
2019-02-04T04:11:46.557Z,-2.35
2019-02-04T04:14:36.338Z,-2.20
2019-02-04T04:17:26.206Z,-2.25
2019-02-04T04:20:16.470Z,-2.25
2019-02-04T04:22:58.940Z,-2.05
2019-02-04T04:25:48.680Z,-1.96
2019-02-04T04:28:38.431Z,-1.96
2019-02-04T04:31:40.550Z,-2.09
2019-02-04T04:34:22.661Z,-2.01
2019-02-04T04:37:12.392Z,-2.02
2019-02-04T04:39:55.948Z,-2.19
2019-02-04T04:42:45.663Z,-1.90
2019-02-04T04:45:28.379Z,-2.09
2019-02-04T04:48:26.245Z,-1.93
2019-02-04T04:51:02.264Z,-1.71
2019-02-04T04:53:52.388Z,-1.84
2019-02-04T04:56:36.745Z,-1.84
2019-02-04T04:59:26.504Z,-2.01
2019-02-04T05:02:09.425Z,-2.33
2019-02-04T05:04:59.156Z,-2.35
2019-02-04T05:07:41.934Z,-2.24
2019-02-04T05:10:31.638Z,-2.19
2019-02-04T05:13:15.460Z,-2.56
2019-02-04T05:16:05.148Z,-2.51
2019-02-04T05:18:47.288Z,-2.60
2019-02-04T05:21:37.051Z,-2.51
2019-02-04T05:24:19.829Z,-2.60
2019-02-04T05:27:09.958Z,-2.45
2019-02-04T05:29:59.900Z,-2.37
2019-02-04T05:32:44.272Z,-2.44
2019-02-04T05:35:34.073Z,-2.51
2019-02-04T05:38:23.813Z,-2.60
2019-02-04T05:41:13.676Z,-2.38
2019-02-04T05:44:03.461Z,-2.26
2019-02-04T05:46:53.312Z,-1.96
2019-02-04T05:50:02.304Z,-1.94
2019-02-04T05:52:52.146Z,-1.70
2019-02-04T05:55:36.582Z,-1.61
2019-02-04T05:58:26.358Z,-1.56
2019-02-04T06:01:16.096Z,-1.37
2019-02-04T06:04:06.003Z,-1.31
2019-02-04T06:06:55.760Z,-1.49
2019-02-04T06:09:45.540Z,-1.59
2019-02-04T06:12:35.295Z,-1.47
2019-02-04T06:15:25.168Z,-1.51
2019-02-04T06:18:34.174Z,-1.45
2019-02-04T06:21:43.036Z,-1.45
2019-02-04T06:24:32.778Z,-1.56
2019-02-04T06:27:22.523Z,-1.83
2019-02-04T06:30:12.636Z,-2.03
2019-02-04T06:32:56.684Z,-1.97
2019-02-04T06:35:38.738Z,-1.94
2019-02-04T06:38:41.156Z,-2.07
2019-02-04T06:41:23.824Z,-2.43
2019-02-04T06:44:13.562Z,-2.83
2019-02-04T06:46:56.426Z,-2.69
2019-02-04T06:49:46.138Z,-2.77
2019-02-04T06:52:28.528Z,-3.05
2019-02-04T06:55:37.583Z,-3.01
2019-02-04T06:58:21.272Z,-3.02
2019-02-04T07:01:11.013Z,-3.19
2019-02-04T07:04:00.757Z,-3.01
2019-02-04T07:06:44.703Z,-3.00
2019-02-04T07:09:34.486Z,-2.98
2019-02-04T07:12:24.259Z,-3.12
2019-02-04T07:15:06.444Z,-3.25
2019-02-04T07:18:01.463Z,-3.12
2019-02-04T07:20:41.332Z,-3.09
2019-02-04T07:26:34.718Z,-3.12
2019-02-04T07:29:16.727Z,-3.19
2019-02-04T07:32:06.900Z,-3.39
2019-02-04T07:34:56.728Z,-3.56
2019-02-04T07:37:43.686Z,-3.81
2019-02-04T07:40:34.203Z,-3.66
2019-02-04T07:43:23.987Z,-3.66
2019-02-04T07:46:13.699Z,-3.59
2019-02-04T07:49:04.036Z,-3.81
2019-02-04T07:51:53.779Z,-3.65
2019-02-04T07:54:36.049Z,-3.74
2019-02-04T07:57:25.776Z,-3.74
2019-02-04T08:00:15.425Z,-3.66
2019-02-04T08:03:06.883Z,-3.56
2019-02-04T08:05:49.511Z,-3.87
2019-02-04T08:08:39.260Z,-3.89
2019-02-04T08:11:21.225Z,-3.80
2019-02-04T08:14:10.960Z,-3.90
2019-02-04T08:16:53.861Z,-3.92
2019-02-04T08:19:47.010Z,-3.57
2019-02-04T08:22:28.205Z,-3.56
2019-02-04T08:25:17.911Z,-3.81
2019-02-04T08:28:00.749Z,-3.40
2019-02-04T08:30:50.487Z,-3.30
2019-02-04T08:33:32.941Z,-3.35
2019-02-04T08:39:18.023Z,-3.25
2019-02-04T08:42:08.081Z,-3.21
2019-02-04T08:44:51.092Z,-3.25
2019-02-04T08:47:40.900Z,-3.06
2019-02-04T08:50:30.671Z,-2.93
2019-02-04T08:53:20.459Z,-2.91
2019-02-04T08:56:10.173Z,-2.89
2019-02-04T08:58:59.863Z,-2.76
2019-02-04T09:01:49.589Z,-2.76
2019-02-04T09:04:31.862Z,-2.46
2019-02-04T09:07:21.584Z,-2.48
2019-02-04T09:10:04.067Z,-2.33
2019-02-04T09:12:53.816Z,-2.05
2019-02-04T09:15:36.629Z,-1.93
2019-02-04T09:18:26.373Z,-1.98
2019-02-04T09:21:10.801Z,-1.76
2019-02-04T09:24:00.523Z,-1.92
2019-02-04T09:26:43.280Z,-1.93
2019-02-04T09:29:32.988Z,-1.84
2019-02-04T09:32:15.739Z,-1.85
2019-02-04T09:35:06.024Z,-1.69
2019-02-04T09:37:48.863Z,-1.89
2019-02-04T09:40:41.206Z,-1.90
2019-02-04T09:43:24.127Z,-1.83
2019-02-04T09:46:13.872Z,-1.85
2019-02-04T09:48:56.202Z,-1.36
2019-02-04T09:51:45.942Z,-1.14
2019-02-04T09:54:30.290Z,-1.42
2019-02-04T09:57:20.018Z,-1.26
2019-02-04T10:00:02.358Z,-1.01
2019-02-04T10:02:52.049Z,-0.87
2019-02-04T10:05:34.165Z,-0.86
2019-02-04T10:08:24.187Z,-0.62
2019-02-04T10:11:06.968Z,-0.44
2019-02-04T10:13:56.718Z,-0.27
2019-02-04T10:16:46.446Z,-0.29
2019-02-04T10:19:29.304Z,-0.66
2019-02-04T10:22:19.144Z,-0.46
2019-02-04T10:25:09.871Z,-0.39
2019-02-04T10:27:59.556Z,0.07
2019-02-04T10:30:42.507Z,0.31
2019-02-04T10:33:32.331Z,0.33
2019-02-04T10:36:22.121Z,0.40
2019-02-04T10:39:30.980Z,0.67
2019-02-04T10:42:13.372Z,1.10
2019-02-04T10:45:22.231Z,1.12
2019-02-04T10:48:05.225Z,1.01
2019-02-04T10:50:54.971Z,0.87
2019-02-04T10:53:44.838Z,0.68
2019-02-04T10:56:28.770Z,0.60
2019-02-04T10:59:18.646Z,0.25
2019-02-04T11:02:11.295Z,0.04
2019-02-04T11:04:52.658Z,0.07
2019-02-04T11:07:42.334Z,0.38
2019-02-04T11:10:28.685Z,0.53
2019-02-04T11:13:18.817Z,0.84
2019-02-04T11:16:01.683Z,0.54
2019-02-04T11:18:51.412Z,0.39
2019-02-04T11:21:33.969Z,0.56
2019-02-04T11:24:23.681Z,0.60
2019-02-04T11:27:05.888Z,0.37
2019-02-04T11:29:55.621Z,0.37
2019-02-04T11:32:37.816Z,0.33
2019-02-04T11:35:27.908Z,0.60
2019-02-04T11:38:09.929Z,0.71
2019-02-04T11:40:59.696Z,0.79
2019-02-04T11:43:42.262Z,0.82
2019-02-04T11:46:32.195Z,0.85
2019-02-04T11:49:14.351Z,1.13
2019-02-04T11:52:04.089Z,0.95
2019-02-04T11:54:46.941Z,0.65
2019-02-04T11:57:36.653Z,0.69
2019-02-04T12:00:20.013Z,0.63
2019-02-04T12:06:26.073Z,1.06
2019-02-04T12:09:15.813Z,0.64
2019-02-04T12:11:58.782Z,0.58
2019-02-04T12:14:48.566Z,0.86
2019-02-04T12:17:38.366Z,0.81
2019-02-04T12:20:47.216Z,1.05
2019-02-04T12:23:36.995Z,1.14
2019-02-04T12:26:26.732Z,1.21
2019-02-04T12:29:16.417Z,0.94
2019-02-04T12:32:06.186Z,1.24
2019-02-04T12:34:55.979Z,1.43
2019-02-04T12:37:37.811Z,1.09
2019-02-04T12:40:27.561Z,1.09
2019-02-04T12:43:10.367Z,1.13
2019-02-04T12:46:00.105Z,1.62
2019-02-04T12:48:42.472Z,1.73
2019-02-04T12:54:33.262Z,1.55
2019-02-04T12:57:22.971Z,1.87
2019-02-04T13:00:15.707Z,1.72
2019-02-04T13:02:58.351Z,1.32
2019-02-04T13:05:50.694Z,1.30
2019-02-04T13:08:40.467Z,1.14
2019-02-04T13:11:30.342Z,1.30
2019-02-04T13:14:20.097Z,1.09
2019-02-04T13:17:09.869Z,1.14
2019-02-04T13:19:59.684Z,1.17
2019-02-04T13:22:49.434Z,1.35
2019-02-04T13:25:33.549Z,1.36
2019-02-04T13:28:23.765Z,1.24
2019-02-04T13:31:13.550Z,1.79
2019-02-04T13:34:03.870Z,1.37
2019-02-04T13:36:53.597Z,1.50
2019-02-04T13:39:43.319Z,1.62
2019-02-04T13:42:25.423Z,1.55
2019-02-04T13:48:30.133Z,1.80
2019-02-04T13:51:19.898Z,1.36
2019-02-04T13:57:12.837Z,1.33
2019-02-04T13:59:56.933Z,1.48
2019-02-04T14:02:59.833Z,1.38
2019-02-04T14:05:41.796Z,1.37
2019-02-04T14:08:31.515Z,1.43
2019-02-04T14:11:13.748Z,1.34
2019-02-04T14:14:03.485Z,1.36
2019-02-04T14:16:45.731Z,1.32
2019-02-04T14:19:35.462Z,1.41
2019-02-04T14:22:19.243Z,1.37
2019-02-04T14:25:09.580Z,1.33
2019-02-04T14:27:59.332Z,1.30
2019-02-04T14:31:01.952Z,1.28
2019-02-04T14:33:43.918Z,1.18
2019-02-04T14:36:33.674Z,1.31
2019-02-04T14:39:16.289Z,1.22
2019-02-04T14:45:43.350Z,1.19
2019-02-04T14:48:46.186Z,1.27
2019-02-04T14:52:00.576Z,1.04
2019-02-04T14:55:28.540Z,1.32
2019-02-04T14:58:32.828Z,1.25
2019-02-04T15:01:45.461Z,1.31
2019-02-04T15:04:57.748Z,1.31
2019-02-04T15:08:32.980Z,1.36
2019-02-04T15:11:32.190Z,1.04
2019-02-04T15:14:34.725Z,1.16
2019-02-04T15:17:36.594Z,1.36
2019-02-04T15:21:04.444Z,1.52
2019-02-04T15:24:09.074Z,1.60
2019-02-04T15:27:37.007Z,1.80
2019-02-04T15:30:28.192Z,1.79
2019-02-04T15:33:40.282Z,1.83
2019-02-04T15:37:08.207Z,1.85
2019-02-04T15:40:29.500Z,1.64
2019-02-04T15:43:44.508Z,1.49
2019-02-04T15:46:39.743Z,1.50
2019-02-04T15:50:02.475Z,1.27
2019-02-04T15:52:52.168Z,1.21
2019-02-04T15:55:41.894Z,1.28
2019-02-04T15:58:24.339Z,1.09
2019-02-04T16:01:14.111Z,1.07
2019-02-04T16:07:23.798Z,0.72
2019-02-04T16:10:15.261Z,0.87
2019-02-04T16:13:05.057Z,0.94
2019-02-04T16:15:54.796Z,0.75
2019-02-04T16:18:56.429Z,0.93
2019-02-04T16:21:39.566Z,0.99
2019-02-04T16:24:29.273Z,1.06
2019-02-04T16:27:11.907Z,0.85
2019-02-04T16:33:03.352Z,0.79
2019-02-04T16:35:53.053Z,0.74
2019-02-04T16:38:35.631Z,0.43
2019-02-04T16:41:25.375Z,0.29
2019-02-04T16:44:07.937Z,0.31
2019-02-04T16:46:57.671Z,0.34
2019-02-04T16:49:39.856Z,0.30
2019-02-04T16:52:29.571Z,0.31
2019-02-04T16:55:11.564Z,0.25
2019-02-04T16:58:01.250Z,0.23
2019-02-04T17:00:45.625Z,0.22
2019-02-04T17:03:35.346Z,-0.01
2019-02-04T17:06:17.093Z,-0.04
2019-02-04T17:09:02.190Z,-0.07
2019-02-04T17:11:50.836Z,-0.14
2019-02-04T17:14:34.578Z,-0.08
2019-02-04T17:17:24.316Z,-0.05
2019-02-04T17:20:08.108Z,0.10
2019-02-04T17:26:01.164Z,-0.08
2019-02-04T17:28:44.035Z,0.17
2019-02-04T17:31:33.815Z,-0.05
2019-02-04T17:34:23.542Z,-0.10
2019-02-04T17:37:32.502Z,-0.14
2019-02-04T17:40:23.026Z,-0.24
2019-02-04T17:43:12.812Z,-0.03
2019-02-04T17:49:05.888Z,-0.08
2019-02-04T17:51:55.631Z,-0.13
2019-02-04T17:57:43.353Z,-0.21
2019-02-04T18:03:39.357Z,-0.13
2019-02-04T18:09:30.286Z,-0.10
2019-02-04T18:12:20.031Z,0.08
2019-02-04T18:15:02.172Z,0.06
2019-02-04T18:17:52.207Z,0.19
2019-02-04T18:20:34.619Z,0.15
2019-02-04T18:23:24.607Z,0.31
2019-02-04T18:26:07.406Z,0.28
2019-02-04T18:28:57.507Z,0.24
2019-02-04T18:31:40.353Z,0.27
2019-02-04T18:34:30.076Z,0.31
2019-02-04T18:37:14.288Z,0.26
2019-02-04T18:40:04.096Z,0.40
2019-02-04T18:42:46.517Z,0.28
2019-02-04T18:45:36.348Z,0.35
2019-02-04T18:48:18.561Z,0.32
2019-02-04T18:51:08.567Z,0.35
2019-02-04T18:53:57.734Z,0.27
2019-02-04T18:56:43.267Z,0.30
2019-02-04T18:59:25.862Z,0.27
2019-02-04T19:02:15.851Z,0.10
2019-02-04T19:04:57.893Z,0.14
2019-02-04T19:07:47.594Z,0.10
2019-02-04T19:10:29.540Z,-0.01
2019-02-04T19:13:19.263Z,-0.04
2019-02-04T19:16:01.576Z,-0.13
2019-02-04T19:18:51.322Z,-0.17
2019-02-04T19:21:33.998Z,-0.24
2019-02-04T19:24:23.730Z,-0.30
2019-02-04T19:27:05.988Z,-0.42
2019-02-04T19:29:55.724Z,-0.22
2019-02-04T19:32:38.556Z,-0.29
2019-02-04T19:35:28.250Z,-0.21
2019-02-04T19:38:11.013Z,-0.20
2019-02-04T19:41:00.743Z,-0.24
2019-02-04T19:43:43.298Z,-0.29
2019-02-04T19:46:33.043Z,-0.24
2019-02-04T19:49:16.683Z,-0.25
2019-02-04T19:52:06.631Z,-0.49
2019-02-04T19:54:48.914Z,-0.55
2019-02-04T19:57:38.645Z,-0.60
2019-02-04T20:00:22.209Z,-0.77
2019-02-04T20:03:12.136Z,-0.79
2019-02-04T20:05:54.250Z,-0.39
2019-02-04T20:08:44.114Z,-0.30
2019-02-04T20:11:26.456Z,-0.29
2019-02-04T20:14:16.217Z,-0.26
2019-02-04T20:16:59.021Z,-0.18
2019-02-04T20:19:48.787Z,-0.18
2019-02-04T20:22:33.331Z,-0.07
2019-02-04T20:25:27.925Z,-0.07
2019-02-04T20:28:10.226Z,0.11
2019-02-04T20:30:59.993Z,0.09
2019-02-04T20:33:42.445Z,-0.20
2019-02-04T20:36:32.260Z,-0.14
2019-02-04T20:39:22.072Z,-0.40
2019-02-04T20:42:07.611Z,-0.30
2019-02-04T20:44:57.432Z,-0.59
2019-02-04T20:47:47.486Z,-0.50
2019-02-04T20:50:38.808Z,-0.19
2019-02-04T20:53:28.599Z,-0.02
2019-02-04T20:56:37.611Z,0.05
2019-02-04T20:59:21.747Z,0.07
2019-02-04T21:02:11.542Z,0.26
2019-02-04T21:05:01.321Z,0.14
2019-02-04T21:07:51.071Z,0.26
2019-02-04T21:10:40.887Z,0.37
2019-02-04T21:13:30.647Z,0.58
2019-02-04T21:16:20.381Z,0.43
2019-02-04T21:19:10.110Z,0.30
2019-02-04T21:21:52.687Z,0.46
2019-02-04T21:27:44.141Z,0.57
2019-02-04T21:30:39.342Z,0.72
2019-02-04T21:33:21.708Z,0.67
2019-02-04T21:36:11.810Z,0.62
2019-02-04T21:38:54.292Z,0.71
2019-02-04T21:41:44.047Z,0.68
2019-02-04T21:44:26.516Z,0.73
2019-02-04T21:47:16.280Z,0.71
2019-02-04T21:53:12.341Z,0.79
2019-02-04T21:55:54.334Z,0.83
2019-02-04T21:58:44.220Z,0.73
2019-02-04T22:01:33.982Z,0.62
2019-02-04T22:04:16.843Z,0.24
2019-02-04T22:07:25.748Z,0.48
2019-02-04T22:10:11.146Z,0.59
2019-02-04T22:13:20.014Z,0.43
2019-02-04T22:16:18.990Z,0.65
2019-02-04T22:22:11.903Z,0.58
2019-02-04T22:24:54.091Z,0.24
2019-02-04T22:27:44.275Z,-0.04
2019-02-04T22:30:34.061Z,-0.09
2019-02-04T22:33:23.813Z,-0.17
2019-02-04T22:36:13.718Z,0.07
2019-02-04T22:39:03.588Z,-0.11
2019-02-04T22:41:53.436Z,-0.16
2019-02-04T22:44:43.355Z,-0.16
2019-02-04T22:47:27.605Z,-0.33
2019-02-04T22:50:19.872Z,-0.51
2019-02-04T22:53:09.628Z,-0.65
2019-02-04T22:55:59.491Z,-0.74
2019-02-04T22:58:52.151Z,-0.79
2019-02-04T23:01:38.368Z,-0.59
2019-02-04T23:04:40.780Z,-0.74
2019-02-04T23:07:23.481Z,-0.53
2019-02-04T23:10:13.280Z,-0.78
2019-02-04T23:12:55.213Z,-0.83
2019-02-04T23:15:44.910Z,-0.80
2019-02-04T23:18:28.814Z,-0.88
2019-02-04T23:21:18.533Z,-0.87
2019-02-04T23:24:00.527Z,-0.87
2019-02-04T23:26:50.240Z,-0.99
2019-02-04T23:29:33.070Z,-1.02
2019-02-04T23:32:22.864Z,-0.96
2019-02-04T23:35:05.907Z,-0.95
2019-02-04T23:37:55.712Z,-0.63
2019-02-04T23:40:37.756Z,-0.43
2019-02-04T23:43:27.559Z,-0.34
2019-02-04T23:46:12.146Z,-0.33
2019-02-04T23:49:01.926Z,-0.38
2019-02-04T23:51:47.340Z,-0.31
2019-02-04T23:54:36.214Z,-0.35
2019-02-04T23:57:19.853Z,-0.21
